Pikeville, Tennessee
Current Conditions -  °F | °C
As of 4:53 PM on Saturday 25 Oct 2014 (Local Time) from KCSV Reporting Station
Broken Clouds Broken Clouds  
Wind Chill: 68°   Ceiling: 4400
Heat Index: 68°   Visibility: 10mi
Dew Point: 55°   Wind: 8mph
Humidity: 63%   Direction: 280°W
Pressure: 30.06"   Gusts: NA
Location:  35.61°N, 85.19°W
Report Text: KCSV 252153Z AUTO 28007KT 10SM SCT034 BKN044 20/13 A3006 RMK AO2 SLP170 T02000128
Loading
Personal Weather Stations






























Interactive Weather Map
Tropical Storm Tracking
New forecast layout! Learn more

10-Day Weather Forecast

Advertisements
Track Severe Weather on mobile